createdAt,value
2023-03-28T00:00:25.820Z,3.03
2023-03-28T00:01:28.336Z,3.10
2023-03-28T00:02:30.867Z,3.07
2023-03-28T00:03:39.774Z,3.02
2023-03-28T00:04:42.742Z,3.11
2023-03-28T00:05:49.066Z,3.10
2023-03-28T00:06:53.660Z,3.07
2023-03-28T00:07:57.619Z,3.04
2023-03-28T00:09:00.143Z,3.05
2023-03-28T00:10:03.742Z,3.08
2023-03-28T00:11:12.743Z,3.27
2023-03-28T00:12:15.623Z,3.17
2023-03-28T00:13:20.072Z,3.21
2023-03-28T00:14:22.708Z,3.22
2023-03-28T00:15:25.828Z,3.18
2023-03-28T00:16:34.053Z,3.38
2023-03-28T00:17:36.658Z,3.30
2023-03-28T00:18:39.468Z,3.35
2023-03-28T00:19:42.029Z,3.34
2023-03-28T00:20:44.549Z,3.45
2023-03-28T00:21:49.472Z,3.45
2023-03-28T00:22:51.870Z,3.32
2023-03-28T00:23:56.552Z,3.32
2023-03-28T00:24:59.442Z,3.20
2023-03-28T00:26:07.954Z,3.34
2023-03-28T00:27:10.720Z,3.07
2023-03-28T00:28:13.119Z,3.02
2023-03-28T00:29:21.386Z,3.11
2023-03-28T00:30:24.043Z,2.97
2023-03-28T00:31:26.604Z,2.97
2023-03-28T00:32:29.226Z,2.95
2023-03-28T00:33:32.088Z,2.92
2023-03-28T00:34:34.485Z,2.89
2023-03-28T00:35:37.008Z,2.92
2023-03-28T00:36:41.815Z,2.95
2023-03-28T00:37:46.001Z,3.02
2023-03-28T00:38:50.228Z,3.04
2023-03-28T00:39:53.972Z,3.00
2023-03-28T00:40:58.028Z,3.04
2023-03-28T00:42:01.874Z,3.05
2023-03-28T00:43:04.641Z,3.06
2023-03-28T00:44:44.804Z,3.29
2023-03-28T00:45:56.103Z,3.09
2023-03-28T00:47:28.236Z,3.31
2023-03-28T00:48:31.247Z,3.12
2023-03-28T00:49:33.773Z,3.09
2023-03-28T00:50:42.781Z,3.26
2023-03-28T00:51:50.332Z,3.19
2023-03-28T00:53:02.343Z,3.00
2023-03-28T00:54:08.585Z,2.97
2023-03-28T00:55:17.092Z,3.06
2023-03-28T00:56:24.065Z,2.92
2023-03-28T00:57:28.616Z,2.86
2023-03-28T00:58:35.697Z,2.89
2023-03-28T00:59:39.435Z,2.86
2023-03-28T01:00:43.016Z,2.72
2023-03-28T01:01:46.904Z,2.72
2023-03-28T01:02:53.368Z,2.83
2023-03-28T01:04:03.279Z,2.84
2023-03-28T01:05:09.178Z,2.83
2023-03-28T01:06:14.454Z,2.85
2023-03-28T01:07:17.218Z,2.75
2023-03-28T01:08:26.355Z,2.94
2023-03-28T01:09:30.423Z,2.73
2023-03-28T01:10:33.897Z,2.75
2023-03-28T01:11:38.461Z,2.76
2023-03-28T01:12:43.512Z,2.77
2023-03-28T01:13:50.354Z,2.85
2023-03-28T01:14:53.221Z,2.72
2023-03-28T01:15:56.435Z,2.71
2023-03-28T01:16:59.701Z,2.66
2023-03-28T01:18:11.461Z,2.61
2023-03-28T01:19:21.985Z,2.85
2023-03-28T01:20:49.385Z,2.88
2023-03-28T01:22:23.825Z,2.81
2023-03-28T01:23:44.707Z,2.88
2023-03-28T01:24:49.745Z,2.83
2023-03-28T01:26:25.147Z,2.83
2023-03-28T01:27:54.684Z,2.77
2023-03-28T01:29:32.833Z,2.72
2023-03-28T01:30:56.591Z,2.63
2023-03-28T01:32:56.292Z,2.68
2023-03-28T01:34:49.755Z,2.68
2023-03-28T01:36:34.456Z,2.72
2023-03-28T01:37:51.434Z,2.75
2023-03-28T01:39:28.153Z,2.82
2023-03-28T01:40:45.927Z,2.95
2023-03-28T01:42:06.921Z,2.94
2023-03-28T01:43:24.675Z,2.97
2023-03-28T01:44:41.954Z,2.89
2023-03-28T01:45:59.662Z,2.88
2023-03-28T01:47:16.159Z,2.83
2023-03-28T01:48:24.448Z,2.86
2023-03-28T01:49:33.566Z,2.66
2023-03-28T01:50:45.332Z,2.81
2023-03-28T01:52:06.926Z,2.91
2023-03-28T01:53:29.361Z,2.89
2023-03-28T01:54:31.900Z,2.74
2023-03-28T01:55:45.321Z,2.90
2023-03-28T01:57:06.738Z,3.04
2023-03-28T01:58:19.889Z,3.00
2023-03-28T01:59:49.293Z,3.02
2023-03-28T02:01:08.085Z,3.12
2023-03-28T02:02:27.721Z,3.11
2023-03-28T02:03:42.211Z,3.18
2023-03-28T02:04:57.139Z,3.12
2023-03-28T02:06:01.376Z,3.02
2023-03-28T02:07:05.371Z,3.09
2023-03-28T02:08:14.376Z,3.08
2023-03-28T02:09:43.898Z,3.14
2023-03-28T02:11:05.013Z,2.92
2023-03-28T02:12:34.298Z,3.11
2023-03-28T02:13:50.866Z,3.10
2023-03-28T02:15:16.429Z,3.02
2023-03-28T02:17:00.627Z,2.93
2023-03-28T02:18:35.142Z,2.87
2023-03-28T02:20:14.890Z,2.81
2023-03-28T02:21:57.228Z,2.64
2023-03-28T02:23:23.885Z,2.59
2023-03-28T02:24:58.802Z,2.40
2023-03-28T02:26:12.536Z,2.24
2023-03-28T02:27:45.953Z,2.17
2023-03-28T02:28:58.316Z,2.16
2023-03-28T02:30:21.713Z,2.17
2023-03-28T02:31:25.729Z,2.18
2023-03-28T02:32:28.574Z,2.16
2023-03-28T02:33:44.766Z,2.25
2023-03-28T02:34:50.398Z,2.08
2023-03-28T02:36:02.962Z,2.07
2023-03-28T02:37:32.776Z,2.03
2023-03-28T02:38:51.360Z,2.05
2023-03-28T02:39:59.522Z,2.07
2023-03-28T02:41:24.726Z,2.02
2023-03-28T02:42:33.145Z,2.07
2023-03-28T02:43:41.887Z,2.11
2023-03-28T02:45:21.155Z,2.16
2023-03-28T02:46:32.017Z,2.18
2023-03-28T02:47:42.999Z,2.29
2023-03-28T02:48:51.487Z,2.47
2023-03-28T02:50:06.851Z,2.45
2023-03-28T02:51:40.708Z,2.37
2023-03-28T02:53:04.336Z,2.47
2023-03-28T02:54:33.859Z,2.46
2023-03-28T02:56:16.228Z,2.50
2023-03-28T02:57:48.741Z,2.43
2023-03-28T02:59:27.743Z,2.47
2023-03-28T03:00:30.982Z,2.23
2023-03-28T03:01:34.300Z,2.25
2023-03-28T03:02:37.625Z,2.22
2023-03-28T03:03:40.730Z,2.27
2023-03-28T03:04:44.442Z,2.18
2023-03-28T03:05:46.940Z,2.33
2023-03-28T03:06:49.466Z,2.39
2023-03-28T03:07:52.227Z,2.29
2023-03-28T03:08:54.754Z,2.22
2023-03-28T03:09:59.186Z,2.06
2023-03-28T03:11:01.717Z,1.93
2023-03-28T03:12:04.235Z,1.84
2023-03-28T03:13:06.872Z,1.84
2023-03-28T03:14:09.626Z,1.75
2023-03-28T03:15:12.272Z,1.76
2023-03-28T03:16:23.944Z,1.83
2023-03-28T03:17:27.776Z,1.81
2023-03-28T03:18:30.512Z,1.69
2023-03-28T03:19:33.174Z,1.71
2023-03-28T03:20:35.674Z,1.76
2023-03-28T03:21:38.798Z,1.72
2023-03-28T03:22:41.680Z,1.76
2023-03-28T03:23:44.202Z,1.82
2023-03-28T03:24:46.712Z,1.80
2023-03-28T03:25:50.775Z,1.85
2023-03-28T03:27:06.274Z,1.92
2023-03-28T03:28:09.397Z,2.04
2023-03-28T03:29:11.913Z,2.13
2023-03-28T03:30:14.558Z,2.12
2023-03-28T03:31:35.746Z,2.14
2023-03-28T03:32:57.667Z,2.22
2023-03-28T03:34:02.682Z,2.19
2023-03-28T03:35:10.005Z,2.16
2023-03-28T03:36:17.927Z,2.13
2023-03-28T03:37:20.806Z,2.13
2023-03-28T03:38:24.885Z,2.20
2023-03-28T03:39:27.763Z,2.29
2023-03-28T03:40:30.529Z,2.28
2023-03-28T03:41:33.522Z,2.37
2023-03-28T03:42:36.542Z,2.36
2023-03-28T03:43:40.014Z,2.40
2023-03-28T03:44:43.124Z,2.42
2023-03-28T03:45:46.459Z,2.42
2023-03-28T03:46:49.309Z,2.46
2023-03-28T03:47:51.944Z,2.42
2023-03-28T03:48:54.532Z,2.35
2023-03-28T03:49:57.294Z,2.37
2023-03-28T03:50:59.841Z,2.38
2023-03-28T03:52:03.773Z,2.45
2023-03-28T03:53:06.419Z,2.43
2023-03-28T03:54:14.459Z,2.40
2023-03-28T03:55:16.976Z,2.35
2023-03-28T03:56:19.727Z,2.35
2023-03-28T03:57:28.133Z,2.35
2023-03-28T03:58:34.971Z,2.40
2023-03-28T03:59:41.942Z,2.41
2023-03-28T04:00:49.057Z,2.39
2023-03-28T04:02:20.748Z,2.34
2023-03-28T04:03:34.371Z,2.35
2023-03-28T04:04:37.746Z,2.33
2023-03-28T04:05:52.863Z,2.28
2023-03-28T04:06:58.252Z,2.25
2023-03-28T04:08:01.754Z,2.17
2023-03-28T04:09:09.544Z,2.19
2023-03-28T04:10:35.354Z,2.18
2023-03-28T04:11:37.860Z,2.15
2023-03-28T04:12:40.498Z,2.17
2023-03-28T04:13:43.146Z,2.20
2023-03-28T04:14:46.021Z,2.08
2023-03-28T04:16:07.062Z,2.33
2023-03-28T04:17:23.575Z,2.09
2023-03-28T04:18:26.222Z,2.05
2023-03-28T04:19:28.745Z,2.08
2023-03-28T04:20:31.878Z,1.98
2023-03-28T04:21:42.876Z,1.90
2023-03-28T04:22:48.305Z,1.73
2023-03-28T04:23:52.562Z,1.67
2023-03-28T04:25:18.071Z,1.55
2023-03-28T04:26:25.896Z,1.61
2023-03-28T04:27:46.418Z,1.59
2023-03-28T04:28:49.045Z,1.55
2023-03-28T04:29:53.840Z,1.52
2023-03-28T04:31:21.876Z,1.71
2023-03-28T04:32:45.027Z,1.71
2023-03-28T04:33:53.916Z,1.56
2023-03-28T04:34:57.674Z,1.57
2023-03-28T04:36:02.413Z,1.59
2023-03-28T04:37:06.109Z,1.47
2023-03-28T04:38:20.638Z,1.53
2023-03-28T04:39:32.961Z,1.46
2023-03-28T04:40:44.845Z,1.44
2023-03-28T04:42:17.250Z,1.47
2023-03-28T04:43:44.734Z,1.38
2023-03-28T04:44:47.131Z,1.29
2023-03-28T04:45:50.062Z,1.31
2023-03-28T04:46:53.492Z,1.39
2023-03-28T04:47:56.097Z,1.38
2023-03-28T04:48:59.011Z,1.48
2023-03-28T04:50:05.132Z,1.51
2023-03-28T04:51:11.493Z,1.48
2023-03-28T04:52:15.938Z,1.56
2023-03-28T04:53:21.574Z,1.64
2023-03-28T04:54:59.385Z,1.73
2023-03-28T04:56:02.368Z,1.73
2023-03-28T04:57:05.900Z,1.74
2023-03-28T04:58:24.456Z,1.72
2023-03-28T04:59:27.338Z,1.85
2023-03-28T05:00:33.584Z,1.81
2023-03-28T05:01:39.214Z,1.87
2023-03-28T05:03:00.509Z,1.92
2023-03-28T05:04:06.945Z,1.91
2023-03-28T05:05:09.698Z,1.97
2023-03-28T05:06:12.223Z,1.99
2023-03-28T05:07:14.737Z,1.98
2023-03-28T05:08:19.301Z,2.00
2023-03-28T05:09:22.899Z,1.92
2023-03-28T05:10:25.779Z,2.02
2023-03-28T05:11:53.864Z,1.98
2023-03-28T05:12:58.565Z,1.96
2023-03-28T05:14:01.899Z,1.95
2023-03-28T05:15:11.268Z,1.91
2023-03-28T05:16:48.122Z,1.96
2023-03-28T05:18:12.117Z,1.89
2023-03-28T05:19:15.471Z,1.95
2023-03-28T05:20:34.793Z,1.96
2023-03-28T05:21:37.308Z,1.96
2023-03-28T05:22:39.843Z,1.98
2023-03-28T05:23:42.350Z,1.94
2023-03-28T05:24:53.157Z,2.02
2023-03-28T05:25:58.911Z,2.02
2023-03-28T05:27:04.908Z,2.06
2023-03-28T05:28:07.435Z,2.07
2023-03-28T05:29:15.229Z,2.03
2023-03-28T05:30:22.311Z,2.09
2023-03-28T05:31:30.882Z,2.05
2023-03-28T05:32:49.756Z,2.11
2023-03-28T05:33:52.601Z,2.11
2023-03-28T05:35:11.398Z,2.19
2023-03-28T05:36:14.206Z,2.08
2023-03-28T05:37:17.158Z,2.13
2023-03-28T05:38:24.252Z,2.20
2023-03-28T05:39:31.437Z,2.22
2023-03-28T05:40:40.321Z,2.20
2023-03-28T05:41:42.962Z,2.17
2023-03-28T05:42:47.173Z,2.22
2023-03-28T05:43:51.619Z,2.21
2023-03-28T05:45:12.677Z,2.33
2023-03-28T05:46:35.526Z,2.28
2023-03-28T05:47:38.106Z,2.30
2023-03-28T05:48:40.689Z,2.32
2023-03-28T05:49:43.688Z,2.30
2023-03-28T05:50:48.244Z,2.44
2023-03-28T05:51:51.849Z,2.33
2023-03-28T05:52:54.607Z,2.34
2023-03-28T05:53:57.172Z,2.32
2023-03-28T05:55:00.152Z,2.35
2023-03-28T05:56:02.655Z,2.31
2023-03-28T05:57:05.230Z,2.42
2023-03-28T05:58:08.261Z,2.42
2023-03-28T05:59:15.854Z,2.41
2023-03-28T06:00:19.570Z,2.50
2023-03-28T06:01:23.549Z,2.45
2023-03-28T06:02:31.005Z,2.49
2023-03-28T06:03:33.658Z,2.59
2023-03-28T06:04:41.565Z,2.63
2023-03-28T06:05:48.027Z,2.65
2023-03-28T06:06:58.594Z,2.73
2023-03-28T06:08:02.796Z,2.78
2023-03-28T06:09:05.545Z,2.83
2023-03-28T06:10:21.268Z,2.91
2023-03-28T06:11:36.983Z,2.91
2023-03-28T06:12:42.862Z,2.92
2023-03-28T06:13:45.378Z,3.03
2023-03-28T06:14:49.470Z,3.03
2023-03-28T06:16:04.457Z,3.08
2023-03-28T06:17:10.631Z,3.05
2023-03-28T06:18:24.506Z,3.05
2023-03-28T06:19:26.918Z,3.17
2023-03-28T06:20:31.351Z,3.23
2023-03-28T06:21:34.230Z,3.38
2023-03-28T06:22:40.951Z,3.44
2023-03-28T06:23:46.464Z,3.62
2023-03-28T06:24:58.948Z,3.71
2023-03-28T06:26:03.759Z,3.71
2023-03-28T06:27:13.468Z,3.73
2023-03-28T06:28:16.489Z,3.80
2023-03-28T06:29:51.280Z,3.94
2023-03-28T06:30:54.063Z,3.94
2023-03-28T06:31:56.715Z,4.13
2023-03-28T06:32:59.350Z,4.34
2023-03-28T06:34:01.957Z,4.65
2023-03-28T06:35:04.969Z,4.79
2023-03-28T06:36:09.293Z,5.09
2023-03-28T06:37:11.914Z,5.27
2023-03-28T06:38:35.970Z,5.56
2023-03-28T06:39:39.522Z,5.98
2023-03-28T06:40:42.289Z,6.19
2023-03-28T06:41:44.922Z,6.46
2023-03-28T06:42:47.443Z,6.82
2023-03-28T06:43:55.971Z,6.88
2023-03-28T06:45:33.768Z,7.19
2023-03-28T06:46:43.041Z,7.42
2023-03-28T06:47:50.140Z,7.95
2023-03-28T06:48:54.410Z,8.16
2023-03-28T06:50:00.049Z,8.60
2023-03-28T06:51:13.022Z,8.68
2023-03-28T06:52:17.460Z,8.88
2023-03-28T06:53:22.976Z,9.63
2023-03-28T06:54:26.004Z,9.40
2023-03-28T06:55:28.632Z,10.18
2023-03-28T06:56:32.037Z,10.44
2023-03-28T06:57:35.338Z,10.12
2023-03-28T06:58:54.908Z,10.25
2023-03-28T07:00:01.255Z,9.74
2023-03-28T07:01:23.013Z,9.36
2023-03-28T07:02:30.366Z,8.73
2023-03-28T07:03:38.794Z,8.31
2023-03-28T07:04:41.948Z,7.90
2023-03-28T07:05:44.823Z,7.98
2023-03-28T07:06:47.598Z,7.83
2023-03-28T07:07:50.231Z,7.88
2023-03-28T07:08:53.219Z,7.61
2023-03-28T07:10:00.786Z,7.08
2023-03-28T07:11:05.102Z,6.83
2023-03-28T07:12:07.623Z,6.62
2023-03-28T07:13:12.193Z,6.59
2023-03-28T07:14:24.307Z,6.48
2023-03-28T07:15:27.305Z,6.68
2023-03-28T07:16:29.856Z,6.30
2023-03-28T07:17:32.256Z,6.76
2023-03-28T07:18:34.987Z,6.58
2023-03-28T07:19:38.247Z,6.93
2023-03-28T07:20:41.657Z,7.37
2023-03-28T07:21:44.714Z,7.70
2023-03-28T07:22:47.369Z,8.09
2023-03-28T07:23:49.870Z,8.80
2023-03-28T07:24:56.486Z,8.55
2023-03-28T07:25:59.351Z,9.43
2023-03-28T07:27:14.679Z,9.84
2023-03-28T07:28:20.238Z,9.93
2023-03-28T07:29:22.876Z,10.53
2023-03-28T07:30:26.958Z,10.90
2023-03-28T07:31:29.519Z,10.20
2023-03-28T07:32:43.406Z,9.80
2023-03-28T07:33:56.759Z,9.92
2023-03-28T07:34:59.366Z,9.80
2023-03-28T07:36:14.666Z,9.32
2023-03-28T07:37:19.769Z,9.26
2023-03-28T07:38:29.603Z,9.48
2023-03-28T07:39:32.415Z,9.41
2023-03-28T07:40:38.241Z,8.94
2023-03-28T07:41:40.882Z,8.75
2023-03-28T07:42:43.424Z,8.41
2023-03-28T07:43:46.296Z,8.55
2023-03-28T07:44:48.804Z,8.64
2023-03-28T07:45:51.840Z,8.22
2023-03-28T07:46:54.853Z,8.41
2023-03-28T07:47:57.494Z,8.49
2023-03-28T07:49:00.961Z,8.31
2023-03-28T07:50:04.406Z,8.25
2023-03-28T07:51:08.021Z,8.21
2023-03-28T07:52:10.653Z,8.42
2023-03-28T07:53:13.175Z,9.22
2023-03-28T07:54:18.001Z,9.53
2023-03-28T07:55:22.055Z,9.58
2023-03-28T07:56:25.928Z,9.47
2023-03-28T07:57:41.739Z,9.49
2023-03-28T07:59:13.699Z,9.86
2023-03-28T08:00:17.744Z,10.86
2023-03-28T08:01:37.307Z,12.25
2023-03-28T08:02:44.682Z,12.67
2023-03-28T08:03:49.022Z,13.26
2023-03-28T08:04:54.104Z,14.78
2023-03-28T08:06:13.428Z,14.61
2023-03-28T08:07:23.019Z,15.55
2023-03-28T08:08:26.260Z,15.61
2023-03-28T08:09:42.820Z,16.38
2023-03-28T08:10:53.025Z,16.04
2023-03-28T08:11:55.671Z,17.18
2023-03-28T08:13:00.827Z,16.95
2023-03-28T08:14:04.675Z,16.92
2023-03-28T08:15:08.263Z,15.57
2023-03-28T08:16:10.842Z,15.69
2023-03-28T08:17:13.429Z,15.26
2023-03-28T08:18:20.905Z,14.90
2023-03-28T08:19:24.107Z,14.04
2023-03-28T08:20:49.555Z,14.39
2023-03-28T08:21:52.788Z,14.12
2023-03-28T08:22:55.314Z,14.26
2023-03-28T08:24:08.082Z,13.43
2023-03-28T08:25:13.570Z,13.68
2023-03-28T08:26:16.200Z,13.64
2023-03-28T08:27:23.518Z,14.05
2023-03-28T08:28:29.752Z,14.85
2023-03-28T08:29:32.398Z,14.99
2023-03-28T08:30:36.480Z,15.91
2023-03-28T08:31:39.773Z,16.79
2023-03-28T08:32:49.653Z,17.04
2023-03-28T08:33:53.998Z,17.52
2023-03-28T08:35:06.006Z,18.12
2023-03-28T08:36:09.653Z,18.03
2023-03-28T08:37:12.118Z,17.56
2023-03-28T08:38:16.680Z,16.88
2023-03-28T08:39:19.827Z,16.02
2023-03-28T08:40:25.937Z,16.44
2023-03-28T08:41:42.129Z,17.22
2023-03-28T08:43:04.207Z,17.17
2023-03-28T08:44:12.493Z,17.63
2023-03-28T08:45:33.487Z,17.55
2023-03-28T08:46:37.120Z,17.26
2023-03-28T08:47:57.532Z,16.63
2023-03-28T08:49:09.850Z,15.57
2023-03-28T08:50:17.291Z,15.04
2023-03-28T08:51:35.565Z,15.09
2023-03-28T08:52:39.631Z,14.96
2023-03-28T08:53:48.852Z,15.30
2023-03-28T08:55:18.135Z,16.20
2023-03-28T08:56:20.911Z,17.23
2023-03-28T08:57:28.472Z,18.14
2023-03-28T08:58:37.693Z,17.99
2023-03-28T08:59:54.500Z,18.02
2023-03-28T09:00:57.373Z,18.68
2023-03-28T09:01:59.819Z,18.89
2023-03-28T09:03:02.397Z,18.39
2023-03-28T09:04:05.794Z,17.74
2023-03-28T09:05:23.816Z,18.31
2023-03-28T09:06:44.573Z,18.18
2023-03-28T09:07:59.926Z,17.42
2023-03-28T09:09:21.264Z,17.24
2023-03-28T09:11:02.806Z,17.38
2023-03-28T09:12:21.505Z,18.18
2023-03-28T09:13:49.945Z,17.32
2023-03-28T09:15:01.403Z,17.77
2023-03-28T09:16:22.421Z,17.49
2023-03-28T09:17:49.255Z,17.26
2023-03-28T09:18:54.888Z,18.09
2023-03-28T09:20:23.549Z,18.69
2023-03-28T09:22:22.232Z,18.12
2023-03-28T09:24:00.421Z,17.57
2023-03-28T09:25:35.222Z,17.41
2023-03-28T09:26:55.115Z,17.73
2023-03-28T09:28:23.674Z,17.78
2023-03-28T09:29:27.999Z,17.37
2023-03-28T09:30:48.992Z,17.95
2023-03-28T09:31:55.901Z,18.11
2023-03-28T09:33:00.678Z,19.05
2023-03-28T09:34:03.881Z,19.02
2023-03-28T09:35:18.038Z,19.45
2023-03-28T09:36:31.557Z,20.09
2023-03-28T09:37:48.776Z,20.35
2023-03-28T09:38:59.560Z,20.97
2023-03-28T09:40:13.254Z,20.31
2023-03-28T09:41:52.612Z,18.63
2023-03-28T09:43:28.383Z,17.73
2023-03-28T09:44:55.052Z,16.65
2023-03-28T09:46:44.450Z,16.76
2023-03-28T09:48:00.320Z,17.02
2023-03-28T09:49:10.852Z,17.67
2023-03-28T09:50:16.836Z,17.89
2023-03-28T09:51:22.732Z,16.50
2023-03-28T09:52:25.377Z,15.92
2023-03-28T09:53:38.450Z,16.27
2023-03-28T09:54:42.064Z,16.55
2023-03-28T09:55:51.507Z,17.43
2023-03-28T09:57:03.891Z,18.52
2023-03-28T09:58:29.453Z,18.55
2023-03-28T09:59:47.094Z,18.64
2023-03-28T10:00:55.214Z,19.36
2023-03-28T10:02:30.074Z,19.24
2023-03-28T10:03:36.419Z,19.25
2023-03-28T10:04:42.700Z,18.60
2023-03-28T10:06:17.223Z,16.87
2023-03-28T10:07:32.952Z,16.29
2023-03-28T10:08:48.305Z,15.82
2023-03-28T10:10:32.944Z,17.73
2023-03-28T10:11:49.269Z,18.46
2023-03-28T10:12:58.994Z,18.95
2023-03-28T10:14:06.189Z,20.34
2023-03-28T10:15:33.216Z,21.76
2023-03-28T10:17:14.105Z,22.82
2023-03-28T10:18:27.680Z,23.08
2023-03-28T10:19:51.456Z,22.52
2023-03-28T10:21:06.793Z,21.08
2023-03-28T10:22:35.828Z,20.03
2023-03-28T10:23:41.851Z,17.96
2023-03-28T10:24:47.471Z,16.17
2023-03-28T10:25:53.005Z,14.19
2023-03-28T10:27:17.726Z,14.30
2023-03-28T10:28:33.555Z,13.82
2023-03-28T10:29:37.284Z,13.19
2023-03-28T10:30:41.054Z,13.20
2023-03-28T10:31:50.026Z,13.90
2023-03-28T10:33:16.282Z,14.85
2023-03-28T10:35:00.800Z,15.28
2023-03-28T10:36:29.480Z,15.48
2023-03-28T10:37:35.152Z,16.17
2023-03-28T10:39:23.964Z,15.17
2023-03-28T10:41:03.633Z,14.14
2023-03-28T10:42:44.052Z,13.59
2023-03-28T10:44:26.244Z,12.34
2023-03-28T10:45:51.166Z,12.06
2023-03-28T10:47:19.289Z,11.97
2023-03-28T10:48:31.654Z,11.44
2023-03-28T10:49:45.932Z,11.19
2023-03-28T10:50:53.731Z,10.70
2023-03-28T10:51:57.101Z,10.57
2023-03-28T10:53:19.785Z,10.39
2023-03-28T10:54:25.416Z,10.42
2023-03-28T10:55:38.735Z,10.08
2023-03-28T10:57:12.075Z,10.00
2023-03-28T10:58:22.774Z,9.97
2023-03-28T10:59:47.978Z,10.36
2023-03-28T11:01:03.336Z,10.50
2023-03-28T11:02:17.546Z,10.19
2023-03-28T11:03:52.518Z,10.12
2023-03-28T11:04:58.180Z,10.21
2023-03-28T11:06:11.622Z,10.57
2023-03-28T11:08:08.994Z,11.12
2023-03-28T11:10:00.349Z,12.54
2023-03-28T11:11:47.987Z,13.17
2023-03-28T11:13:23.870Z,14.10
2023-03-28T11:14:35.987Z,15.19
2023-03-28T11:16:06.755Z,15.58
2023-03-28T11:17:27.122Z,15.89
2023-03-28T11:18:38.865Z,16.94
2023-03-28T11:20:17.484Z,17.25
2023-03-28T11:21:47.389Z,16.85
2023-03-28T11:23:38.079Z,17.16
2023-03-28T11:25:28.792Z,17.57
2023-03-28T11:27:12.425Z,17.24
2023-03-28T11:29:08.434Z,14.95
2023-03-28T11:30:17.753Z,14.73
2023-03-28T11:31:38.291Z,13.86
2023-03-28T11:32:43.954Z,13.21
2023-03-28T11:34:05.278Z,12.77
2023-03-28T11:35:14.047Z,11.96
2023-03-28T11:36:29.644Z,11.59
2023-03-28T11:37:38.878Z,11.46
2023-03-28T11:38:48.839Z,10.91
2023-03-28T11:40:00.868Z,10.80
2023-03-28T11:41:24.719Z,10.40
2023-03-28T11:42:54.025Z,10.47
2023-03-28T11:44:08.879Z,11.16
2023-03-28T11:45:51.059Z,12.29
2023-03-28T11:47:07.572Z,12.56
2023-03-28T11:48:15.603Z,12.19
2023-03-28T11:49:21.618Z,12.25
2023-03-28T11:50:31.583Z,12.11
2023-03-28T11:51:45.740Z,11.90
2023-03-28T11:52:59.409Z,11.58
2023-03-28T11:54:22.361Z,11.19
2023-03-28T11:55:29.889Z,10.95
2023-03-28T11:56:49.025Z,10.79
2023-03-28T11:58:05.412Z,10.68
2023-03-28T11:59:23.651Z,10.61
2023-03-28T12:00:36.632Z,10.54
2023-03-28T12:01:50.701Z,10.21
2023-03-28T12:03:06.748Z,9.98
2023-03-28T12:04:19.412Z,10.28
2023-03-28T12:05:40.580Z,10.20
2023-03-28T12:07:11.541Z,10.32
2023-03-28T12:08:31.112Z,10.07
2023-03-28T12:09:44.551Z,10.25
2023-03-28T12:10:52.942Z,10.54
2023-03-28T12:12:11.954Z,10.78
2023-03-28T12:13:17.430Z,10.65
2023-03-28T12:14:41.674Z,10.59
2023-03-28T12:16:00.862Z,10.45
2023-03-28T12:17:16.340Z,10.23
2023-03-28T12:18:43.702Z,10.06
2023-03-28T12:19:54.753Z,9.79
2023-03-28T12:21:11.905Z,9.84
2023-03-28T12:22:26.869Z,9.40
2023-03-28T12:24:08.581Z,9.35
2023-03-28T12:25:30.025Z,9.57
2023-03-28T12:27:06.986Z,9.62
2023-03-28T12:28:49.847Z,9.74
2023-03-28T12:30:00.418Z,9.36
2023-03-28T12:31:16.517Z,9.48
2023-03-28T12:32:50.135Z,9.37
2023-03-28T12:34:22.235Z,9.21
2023-03-28T12:35:59.338Z,9.19
2023-03-28T12:37:14.799Z,9.34
2023-03-28T12:38:40.598Z,9.48
2023-03-28T12:40:24.659Z,9.54
2023-03-28T12:41:40.133Z,9.68
2023-03-28T12:42:45.761Z,9.66
2023-03-28T12:43:54.051Z,9.62
2023-03-28T12:45:06.875Z,9.80
2023-03-28T12:46:12.573Z,10.08
2023-03-28T12:47:22.843Z,10.13
2023-03-28T12:48:37.255Z,10.41
2023-03-28T12:49:46.000Z,10.54
2023-03-28T12:50:57.523Z,10.75
2023-03-28T12:52:06.554Z,10.61
2023-03-28T12:53:12.788Z,10.80
2023-03-28T12:54:16.513Z,10.52
2023-03-28T12:55:25.729Z,10.06
2023-03-28T12:56:31.965Z,9.96
2023-03-28T12:57:46.699Z,10.04
2023-03-28T12:59:35.449Z,9.96
2023-03-28T13:00:40.609Z,9.86
2023-03-28T13:02:26.115Z,10.06
2023-03-28T13:03:57.811Z,10.06
2023-03-28T13:05:46.135Z,9.96
2023-03-28T13:07:07.145Z,9.86
2023-03-28T13:08:15.918Z,10.03
2023-03-28T13:09:30.419Z,10.10
2023-03-28T13:10:46.506Z,10.10
2023-03-28T13:12:03.425Z,9.79
2023-03-28T13:13:34.864Z,9.46
2023-03-28T13:14:41.240Z,8.93
2023-03-28T13:16:07.371Z,9.09
2023-03-28T13:17:21.900Z,9.00
2023-03-28T13:18:26.590Z,9.17
2023-03-28T13:19:46.625Z,9.49
2023-03-28T13:20:52.096Z,9.78
2023-03-28T13:21:57.715Z,10.21
2023-03-28T13:23:07.770Z,10.45
2023-03-28T13:24:25.637Z,10.54
2023-03-28T13:25:29.715Z,10.55
2023-03-28T13:26:59.236Z,10.93
2023-03-28T13:28:31.271Z,10.92
2023-03-28T13:29:51.939Z,11.28
2023-03-28T13:31:26.993Z,11.62
2023-03-28T13:32:37.461Z,11.36
2023-03-28T13:33:49.400Z,10.89
2023-03-28T13:34:57.852Z,10.92
2023-03-28T13:36:00.567Z,10.93
2023-03-28T13:37:22.951Z,11.07
2023-03-28T13:38:28.648Z,11.19
2023-03-28T13:39:33.554Z,11.15
2023-03-28T13:40:57.587Z,11.53
2023-03-28T13:42:01.071Z,11.91
2023-03-28T13:43:05.002Z,11.58
2023-03-28T13:44:16.935Z,11.95
2023-03-28T13:45:24.004Z,11.98
2023-03-28T13:46:36.632Z,11.57
2023-03-28T13:47:41.510Z,11.30
2023-03-28T13:48:51.679Z,11.38
2023-03-28T13:50:08.142Z,11.58
2023-03-28T13:51:17.605Z,11.23
2023-03-28T13:52:24.811Z,11.14
2023-03-28T13:53:37.497Z,11.11
2023-03-28T13:54:54.007Z,11.20
2023-03-28T13:56:34.298Z,11.68
2023-03-28T13:57:37.297Z,11.79
2023-03-28T13:58:39.929Z,11.62
2023-03-28T14:00:04.775Z,11.44
2023-03-28T14:01:18.723Z,11.17
2023-03-28T14:02:42.344Z,10.96
2023-03-28T14:03:48.576Z,10.78
2023-03-28T14:05:04.175Z,10.67
2023-03-28T14:06:14.616Z,10.94
2023-03-28T14:07:24.095Z,11.17
2023-03-28T14:08:26.506Z,11.15
2023-03-28T14:09:28.976Z,11.04
2023-03-28T14:10:32.862Z,11.29
2023-03-28T14:11:38.268Z,11.37
2023-03-28T14:12:41.142Z,11.33
2023-03-28T14:13:44.389Z,11.24
2023-03-28T14:14:50.280Z,11.36
2023-03-28T14:15:53.763Z,11.46
2023-03-28T14:16:57.001Z,10.76
2023-03-28T14:18:00.521Z,10.57
2023-03-28T14:19:04.752Z,10.62
2023-03-28T14:20:08.387Z,10.77
2023-03-28T14:21:11.144Z,10.60
2023-03-28T14:22:19.078Z,10.64
2023-03-28T14:23:29.463Z,10.64
2023-03-28T14:24:32.031Z,10.57
2023-03-28T14:25:34.553Z,10.72
2023-03-28T14:26:37.458Z,10.67
2023-03-28T14:27:49.324Z,10.82
2023-03-28T14:28:53.392Z,10.81
2023-03-28T14:29:58.918Z,10.88
2023-03-28T14:31:01.620Z,10.90
2023-03-28T14:32:08.110Z,10.90
2023-03-28T14:33:13.522Z,10.84
2023-03-28T14:34:38.836Z,10.76
2023-03-28T14:35:46.244Z,10.81
2023-03-28T14:37:03.613Z,11.02
2023-03-28T14:38:12.377Z,11.05
2023-03-28T14:39:18.529Z,11.21
2023-03-28T14:40:24.004Z,10.97
2023-03-28T14:41:29.426Z,10.56
2023-03-28T14:42:33.125Z,10.61
2023-03-28T14:43:36.733Z,10.46
2023-03-28T14:44:44.776Z,10.83
2023-03-28T14:45:54.277Z,10.88
2023-03-28T14:46:59.405Z,11.01
2023-03-28T14:48:06.174Z,11.06
2023-03-28T14:49:16.214Z,11.08
2023-03-28T14:50:21.986Z,11.17
2023-03-28T14:51:24.613Z,11.19
2023-03-28T14:52:31.607Z,10.82
2023-03-28T14:53:42.618Z,10.55
2023-03-28T14:54:50.109Z,10.63
2023-03-28T14:55:54.661Z,10.49
2023-03-28T14:56:58.499Z,10.47
2023-03-28T14:58:02.438Z,10.45
2023-03-28T14:59:05.659Z,10.48
2023-03-28T15:00:15.498Z,10.85
2023-03-28T15:01:23.786Z,10.99
2023-03-28T15:02:41.412Z,10.81
2023-03-28T15:03:46.530Z,10.77
2023-03-28T15:04:50.177Z,10.75
2023-03-28T15:05:55.036Z,11.00
2023-03-28T15:06:58.588Z,11.07
2023-03-28T15:08:02.544Z,11.31
2023-03-28T15:09:28.460Z,11.52
2023-03-28T15:10:31.596Z,11.67
2023-03-28T15:11:37.446Z,11.87
2023-03-28T15:12:51.405Z,11.15
2023-03-28T15:14:33.389Z,11.14
2023-03-28T15:15:38.488Z,10.95
2023-03-28T15:16:44.301Z,11.35
2023-03-28T15:17:47.564Z,11.25
2023-03-28T15:19:28.478Z,11.78
2023-03-28T15:20:34.584Z,11.48
2023-03-28T15:21:39.531Z,11.51
2023-03-28T15:22:42.030Z,11.38
2023-03-28T15:23:48.746Z,11.34
2023-03-28T15:24:51.392Z,11.44
2023-03-28T15:25:54.388Z,11.30
2023-03-28T15:27:00.162Z,10.81
2023-03-28T15:28:06.761Z,10.86
2023-03-28T15:29:13.110Z,10.53
2023-03-28T15:30:19.714Z,10.51
2023-03-28T15:31:23.014Z,10.34
2023-03-28T15:32:28.146Z,10.43
2023-03-28T15:33:34.129Z,10.53
2023-03-28T15:35:00.766Z,10.62
2023-03-28T15:36:15.429Z,10.50
2023-03-28T15:37:22.842Z,10.36
2023-03-28T15:38:28.232Z,10.28
2023-03-28T15:39:32.934Z,9.92
2023-03-28T15:41:11.202Z,10.21
2023-03-28T15:42:34.249Z,10.14
2023-03-28T15:43:57.649Z,9.94
2023-03-28T15:44:59.933Z,10.16